createdAt,value
2022-12-26T00:00:00.139Z,101040.66
2022-12-26T00:02:26.622Z,101033.84
2022-12-26T00:04:53.872Z,101027.31
2022-12-26T00:07:20.755Z,101028.09
2022-12-26T00:09:47.319Z,101033.84
2022-12-26T00:12:13.886Z,101034.94
2022-12-26T00:14:40.388Z,101042.75
2022-12-26T00:17:07.641Z,101041.47
2022-12-26T00:19:34.111Z,101032.22
2022-12-26T00:22:00.887Z,101035.25
2022-12-26T00:24:27.355Z,101039.53
2022-12-26T00:26:53.805Z,101041.47
2022-12-26T00:29:20.274Z,101061.84
2022-12-26T00:31:47.052Z,101057.22
2022-12-26T00:34:13.654Z,101059.81
2022-12-26T00:36:40.239Z,101080.78
2022-12-26T00:39:06.824Z,101071.56
2022-12-26T00:41:33.714Z,101076.63
2022-12-26T00:44:00.288Z,101072.00
2022-12-26T00:46:27.601Z,101080.91
2022-12-26T00:48:54.186Z,101075.50
2022-12-26T00:51:21.084Z,101081.25
2022-12-26T00:53:47.717Z,101079.34
2022-12-26T00:56:14.281Z,101077.41
2022-12-26T00:58:42.036Z,101075.50
2022-12-26T01:01:14.334Z,101084.75
2022-12-26T01:03:41.764Z,101080.13
2022-12-26T01:06:08.628Z,101075.03
2022-12-26T01:08:35.181Z,101079.66
2022-12-26T01:11:04.110Z,101076.63
2022-12-26T01:13:30.589Z,101077.75
2022-12-26T01:15:57.146Z,101078.53
2022-12-26T01:18:23.669Z,101078.53
2022-12-26T01:20:50.147Z,101086.66
2022-12-26T01:23:17.465Z,101082.69
2022-12-26T01:26:15.474Z,101078.88
2022-12-26T01:28:30.604Z,101074.25
2022-12-26T01:31:01.682Z,101077.41
2022-12-26T01:33:28.099Z,101064.56
2022-12-26T01:35:54.662Z,101066.94
2022-12-26T01:38:21.921Z,101068.84
2022-12-26T01:40:49.356Z,101070.44
2022-12-26T01:43:16.832Z,101070.75
2022-12-26T01:45:49.308Z,101061.53
2022-12-26T01:48:33.416Z,101069.63
2022-12-26T01:51:05.425Z,101081.56
2022-12-26T01:53:37.372Z,101082.69
2022-12-26T01:56:06.969Z,101097.81
2022-12-26T01:58:37.894Z,101088.44
2022-12-26T02:01:08.266Z,101093.97
2022-12-26T02:03:57.579Z,101091.28
2022-12-26T02:06:24.211Z,101081.25
2022-12-26T02:08:51.013Z,101076.97
2022-12-26T02:11:34.828Z,101075.03
2022-12-26T02:14:02.280Z,101069.63
2022-12-26T02:16:30.042Z,101073.13
2022-12-26T02:18:56.575Z,101059.94
2022-12-26T02:21:32.048Z,101072.69
2022-12-26T02:24:13.014Z,101074.25
2022-12-26T02:27:24.365Z,101070.31
2022-12-26T02:30:28.076Z,101067.59
2022-12-26T02:33:13.854Z,101063.31
2022-12-26T02:35:54.835Z,101071.75
2022-12-26T02:38:21.260Z,101072.84
2022-12-26T02:40:52.900Z,101078.59
2022-12-26T02:43:41.419Z,101077.00
2022-12-26T02:46:45.169Z,101079.25
2022-12-26T02:49:53.028Z,101081.81
2022-12-26T02:52:44.409Z,101077.84
2022-12-26T02:55:36.400Z,101077.84
2022-12-26T02:58:34.150Z,101066.09
2022-12-26T03:01:24.731Z,101061.34
2022-12-26T03:04:14.939Z,101063.44
2022-12-26T03:07:05.099Z,101061.06
2022-12-26T03:09:53.506Z,101057.88
2022-12-26T03:12:38.375Z,101063.28
2022-12-26T03:15:11.985Z,101072.84
2022-12-26T03:17:46.788Z,101083.00
2022-12-26T03:20:13.184Z,101078.88
2022-12-26T03:22:54.054Z,101078.22
2022-12-26T03:25:50.767Z,101093.66
2022-12-26T03:28:17.353Z,101096.81
2022-12-26T03:30:49.816Z,101093.00
2022-12-26T03:33:40.958Z,101077.25
2022-12-26T03:36:11.532Z,101093.94
2022-12-26T03:39:07.460Z,101099.97
2022-12-26T03:42:06.479Z,101092.81
2022-12-26T03:45:09.823Z,101092.69
2022-12-26T03:48:02.338Z,101095.06
2022-12-26T03:50:59.006Z,101089.03
2022-12-26T03:54:07.088Z,101096.97
2022-12-26T03:57:13.707Z,101088.06
2022-12-26T04:00:05.876Z,101097.28
2022-12-26T04:02:54.170Z,101097.47
2022-12-26T04:05:40.565Z,101090.66
2022-12-26T04:08:35.571Z,101079.38
2022-12-26T04:11:22.885Z,101080.34
2022-12-26T04:14:29.515Z,101087.19
2022-12-26T04:17:57.538Z,101083.91
2022-12-26T04:20:48.646Z,101087.22
2022-12-26T04:23:46.282Z,101084.69
2022-12-26T04:26:59.232Z,101096.91
2022-12-26T04:29:44.359Z,101104.09
2022-12-26T04:32:46.875Z,101106.78
2022-12-26T04:35:40.267Z,101106.47
2022-12-26T04:38:26.625Z,101111.22
2022-12-26T04:41:16.368Z,101114.41
2022-12-26T04:44:02.551Z,101112.19
2022-12-26T04:46:32.175Z,101111.56
2022-12-26T04:49:21.469Z,101102.81
2022-12-26T04:51:48.314Z,101101.19
2022-12-26T04:54:14.893Z,101093.59
2022-12-26T04:56:41.413Z,101088.19
2022-12-26T04:59:07.862Z,101073.88
2022-12-26T05:01:52.935Z,101070.38
2022-12-26T05:04:38.557Z,101064.16
2022-12-26T05:07:29.814Z,101065.59
2022-12-26T05:09:56.376Z,101061.94
2022-12-26T05:12:22.898Z,101066.22
2022-12-26T05:14:49.609Z,101058.13
2022-12-26T05:17:34.769Z,101069.72
2022-12-26T05:20:19.451Z,101068.63
2022-12-26T05:23:05.193Z,101073.38
2022-12-26T05:25:55.566Z,101080.69
2022-12-26T05:28:40.754Z,101074.34
2022-12-26T05:31:08.644Z,101067.03
2022-12-26T05:33:53.749Z,101068.78
2022-12-26T05:36:23.082Z,101078.00
2022-12-26T05:38:49.579Z,101082.16
2022-12-26T05:41:16.506Z,101090.25
2022-12-26T05:43:44.202Z,101093.59
2022-12-26T05:46:10.785Z,101090.91
2022-12-26T05:48:37.290Z,101090.13
2022-12-26T05:51:04.582Z,101087.41
2022-12-26T05:53:32.066Z,101090.75
2022-12-26T05:56:12.462Z,101088.38
2022-12-26T05:58:39.765Z,101086.00
2022-12-26T06:01:15.143Z,101086.31
2022-12-26T06:03:43.761Z,101071.84
2022-12-26T06:06:10.768Z,101076.78
2022-12-26T06:08:37.567Z,101077.13
2022-12-26T06:11:06.529Z,101080.16
2022-12-26T06:13:34.079Z,101083.47
2022-12-26T06:16:05.309Z,101084.25
2022-12-26T06:18:31.923Z,101085.06
2022-12-26T06:20:58.461Z,101076.47
2022-12-26T06:23:24.954Z,101073.47
2022-12-26T06:25:55.785Z,101086.16
2022-12-26T06:28:23.633Z,101080.78
2022-12-26T06:30:51.949Z,101081.25
2022-12-26T06:33:19.213Z,101079.34
2022-12-26T06:35:46.051Z,101090.47
2022-12-26T06:38:12.825Z,101079.19
2022-12-26T06:40:40.556Z,101082.06
2022-12-26T06:43:08.606Z,101077.78
2022-12-26T06:45:35.773Z,101088.09
2022-12-26T06:48:02.729Z,101095.25
2022-12-26T06:50:29.370Z,101099.69
2022-12-26T06:52:55.883Z,101090.34
2022-12-26T06:55:22.351Z,101094.63
2022-12-26T06:57:52.006Z,101083.34
2022-12-26T07:00:18.639Z,101093.34
2022-12-26T07:02:45.157Z,101094.47
2022-12-26T07:05:11.640Z,101085.59
2022-12-26T07:07:38.125Z,101090.97
2022-12-26T07:10:04.859Z,101103.38
2022-12-26T07:12:34.919Z,101111.00
2022-12-26T07:15:02.122Z,101109.72
2022-12-26T07:17:28.766Z,101101.13
2022-12-26T07:19:55.293Z,101114.63
2022-12-26T07:22:21.766Z,101098.75
2022-12-26T07:24:48.241Z,101101.28
2022-12-26T07:27:14.697Z,101103.19
2022-12-26T07:29:41.176Z,101100.47
2022-12-26T07:32:07.687Z,101098.91
2022-12-26T07:34:34.275Z,101100.97
2022-12-26T07:37:00.783Z,101097.00
2022-12-26T07:39:27.315Z,101097.16
2022-12-26T07:41:59.519Z,101085.56
2022-12-26T07:44:30.482Z,101087.63
2022-12-26T07:46:57.264Z,101090.16
2022-12-26T07:49:24.342Z,101094.59
2022-12-26T07:51:51.098Z,101105.22
2022-12-26T07:54:18.328Z,101109.31
2022-12-26T07:56:45.293Z,101112.03
2022-12-26T07:59:15.072Z,101112.19
2022-12-26T08:01:42.418Z,101109.63
2022-12-26T08:04:10.675Z,101123.00
2022-12-26T08:06:38.122Z,101117.41
2022-12-26T08:09:05.503Z,101114.41
2022-12-26T08:11:35.023Z,101116.00
2022-12-26T08:14:02.231Z,101117.09
2022-12-26T08:16:29.238Z,101115.47
2022-12-26T08:18:55.784Z,101102.47
2022-12-26T08:21:22.268Z,101113.28
2022-12-26T08:23:48.911Z,101104.50
2022-12-26T08:26:20.845Z,101106.09
2022-12-26T08:28:47.449Z,101110.03
2022-12-26T08:31:14.312Z,101128.97
2022-12-26T08:33:40.945Z,101130.25
2022-12-26T08:36:10.643Z,101115.59
2022-12-26T08:38:37.633Z,101131.84
2022-12-26T08:41:04.235Z,101137.69
2022-12-26T08:44:24.984Z,101133.56
2022-12-26T08:46:19.555Z,101136.25
2022-12-26T08:48:47.150Z,101137.84
2022-12-26T08:51:24.814Z,101138.00
2022-12-26T08:53:53.284Z,101140.38
2022-12-26T08:56:22.386Z,101154.03
2022-12-26T08:58:49.302Z,101154.53
2022-12-26T09:01:18.876Z,101149.56
2022-12-26T09:03:45.551Z,101145.75
2022-12-26T09:06:14.209Z,101148.44
2022-12-26T09:08:41.932Z,101139.69
2022-12-26T09:11:12.107Z,101148.09
2022-12-26T09:13:39.026Z,101150.63
2022-12-26T09:16:06.713Z,101165.41
2022-12-26T09:18:33.395Z,101165.84
2022-12-26T09:21:04.451Z,101165.06
2022-12-26T09:23:31.411Z,101172.56
2022-12-26T09:26:11.149Z,101185.75
2022-12-26T09:28:38.948Z,101226.00
2022-12-26T09:31:09.937Z,101223.75
2022-12-26T09:33:37.716Z,101221.84
2022-12-26T09:36:12.518Z,101233.78
2022-12-26T09:38:40.921Z,101239.53
2022-12-26T09:41:15.994Z,101256.88
2022-12-26T09:44:05.597Z,101265.63
2022-12-26T09:46:47.369Z,101272.69
2022-12-26T09:49:20.400Z,101264.06
2022-12-26T09:51:52.697Z,101260.56
2022-12-26T09:54:31.547Z,101286.84
2022-12-26T09:57:03.393Z,101282.38
2022-12-26T09:59:34.415Z,101282.06
2022-12-26T10:02:01.088Z,101285.09
2022-12-26T10:04:30.423Z,101280.00
2022-12-26T10:07:15.068Z,101301.81
2022-12-26T10:10:00.330Z,101296.25
2022-12-26T10:12:42.617Z,101308.81
2022-12-26T10:15:22.410Z,101315.69
2022-12-26T10:17:52.641Z,101324.44
2022-12-26T10:20:39.885Z,101330.94
2022-12-26T10:23:29.882Z,101346.50
2022-12-26T10:26:11.057Z,101348.56
2022-12-26T10:29:09.702Z,101348.56
2022-12-26T10:31:38.983Z,101365.75
2022-12-26T10:34:17.243Z,101369.38
2022-12-26T10:36:43.675Z,101377.00
2022-12-26T10:39:19.704Z,101378.09
2022-12-26T10:41:50.244Z,101382.19
2022-12-26T10:44:16.847Z,101375.84
2022-12-26T10:46:59.128Z,101387.09
2022-12-26T10:49:27.077Z,101399.78
2022-12-26T10:51:57.179Z,101395.69
2022-12-26T10:54:23.833Z,101406.66
2022-12-26T10:56:52.151Z,101409.50
2022-12-26T10:59:22.713Z,101414.91
2022-12-26T11:01:50.252Z,101425.25
2022-12-26T11:05:02.160Z,101416.03
2022-12-26T11:07:12.873Z,101420.78
2022-12-26T11:09:42.763Z,101430.63
2022-12-26T11:12:59.619Z,101421.72
2022-12-26T11:15:38.497Z,101436.06
2022-12-26T11:18:19.809Z,101449.44
2022-12-26T11:20:47.077Z,101444.78
2022-12-26T11:23:26.483Z,101460.31
2022-12-26T11:25:55.761Z,101466.94
2022-12-26T11:28:34.395Z,101472.53
2022-12-26T11:31:06.956Z,101467.47
2022-12-26T11:33:43.908Z,101474.88
2022-12-26T11:36:20.267Z,101472.31
2022-12-26T11:38:57.007Z,101475.53
2022-12-26T11:41:32.167Z,101486.47
2022-12-26T11:44:11.375Z,101490.28
2022-12-26T11:46:53.275Z,101489.50
2022-12-26T11:49:22.779Z,101490.72
2022-12-26T11:51:55.614Z,101485.16
2022-12-26T11:54:35.646Z,101499.44
2022-12-26T11:57:17.065Z,101500.09
2022-12-26T11:59:43.730Z,101502.16
2022-12-26T12:02:12.999Z,101493.69
2022-12-26T12:04:39.553Z,101499.25
2022-12-26T12:07:20.283Z,101494.78
2022-12-26T12:10:05.204Z,101497.19
2022-12-26T12:13:34.314Z,101499.25
2022-12-26T12:16:13.293Z,101488.66
2022-12-26T12:19:07.855Z,101492.25
2022-12-26T12:21:56.244Z,101483.84
2022-12-26T12:24:50.594Z,101487.53
2022-12-26T12:27:25.967Z,101482.31
2022-12-26T12:30:11.077Z,101497.59
2022-12-26T12:33:08.497Z,101510.28
2022-12-26T12:35:55.142Z,101513.09
2022-12-26T12:38:24.717Z,101523.19
2022-12-26T12:41:36.000Z,101519.81
2022-12-26T12:44:39.738Z,101520.56
2022-12-26T12:47:29.699Z,101522.38
2022-12-26T12:50:13.072Z,101531.16
2022-12-26T12:53:10.470Z,101528.16
2022-12-26T12:55:47.760Z,101528.25
2022-12-26T12:58:31.437Z,101528.94
2022-12-26T13:01:05.236Z,101534.84
2022-12-26T13:03:46.871Z,101532.88
2022-12-26T13:06:20.315Z,101533.97
2022-12-26T13:09:05.555Z,101539.00
2022-12-26T13:11:34.780Z,101535.66
2022-12-26T13:14:07.522Z,101545.09
2022-12-26T13:16:43.642Z,101540.63
2022-12-26T13:19:25.512Z,101543.44
2022-12-26T13:21:56.672Z,101541.03
2022-12-26T13:24:38.641Z,101541.66
2022-12-26T13:27:31.188Z,101541.19
2022-12-26T13:29:57.968Z,101544.97
2022-12-26T13:32:27.018Z,101547.06
2022-12-26T13:34:55.843Z,101547.31
2022-12-26T13:37:40.406Z,101545.28
2022-12-26T13:40:17.988Z,101551.66
2022-12-26T13:43:04.810Z,101554.28
2022-12-26T13:45:37.314Z,101554.13
2022-12-26T13:48:16.259Z,101567.63
2022-12-26T13:50:56.433Z,101571.66
2022-12-26T13:53:26.299Z,101573.84
2022-12-26T13:56:23.529Z,101575.16
2022-12-26T13:58:53.918Z,101579.44
2022-12-26T14:01:41.724Z,101587.69
2022-12-26T14:04:35.388Z,101591.22
2022-12-26T14:07:20.464Z,101600.75
2022-12-26T14:09:56.485Z,101608.13
2022-12-26T14:12:28.880Z,101612.13
2022-12-26T14:15:20.221Z,101613.81
2022-12-26T14:18:04.926Z,101617.69
2022-12-26T14:20:42.191Z,101624.69
2022-12-26T14:23:26.583Z,101619.84
2022-12-26T14:26:03.323Z,101625.19
2022-12-26T14:28:51.650Z,101618.97
2022-12-26T14:31:37.311Z,101631.38
2022-12-26T14:34:21.975Z,101632.66
2022-12-26T14:37:03.876Z,101640.22
2022-12-26T14:39:51.213Z,101650.84
2022-12-26T14:42:40.308Z,101658.66
2022-12-26T14:45:32.638Z,101656.25
2022-12-26T14:47:59.587Z,101646.22
2022-12-26T14:50:32.298Z,101659.69
2022-12-26T14:53:17.085Z,101661.13
2022-12-26T14:55:52.438Z,101666.22
2022-12-26T14:58:31.300Z,101668.00
2022-12-26T15:01:18.299Z,101680.41
2022-12-26T15:04:09.015Z,101682.28
2022-12-26T15:06:47.603Z,101683.84
2022-12-26T15:09:22.931Z,101695.94
2022-12-26T15:12:20.681Z,101693.47
2022-12-26T15:15:12.068Z,101700.28
2022-12-26T15:18:00.308Z,101700.75
2022-12-26T15:21:12.211Z,101706.91
2022-12-26T15:23:50.694Z,101712.59
2022-12-26T15:26:45.536Z,101702.41
2022-12-26T15:29:38.146Z,101711.25
2022-12-26T15:32:19.860Z,101716.34
2022-12-26T15:35:00.248Z,101725.44
2022-12-26T15:37:45.515Z,101729.66
2022-12-26T15:40:23.464Z,101729.84
2022-12-26T15:43:14.598Z,101728.63
2022-12-26T15:45:58.065Z,101728.22
2022-12-26T15:49:01.957Z,101734.28
2022-12-26T15:52:24.762Z,101731.19
2022-12-26T15:55:09.468Z,101732.16
2022-12-26T15:57:50.359Z,101740.88
2022-12-26T16:00:25.612Z,101741.88
2022-12-26T16:03:15.604Z,101758.53
2022-12-26T16:05:56.167Z,101756.44
2022-12-26T16:08:50.062Z,101757.66
2022-12-26T16:11:18.511Z,101758.72
2022-12-26T16:13:53.243Z,101765.56
2022-12-26T16:16:34.859Z,101770.56
2022-12-26T16:19:22.735Z,101777.94
2022-12-26T16:22:13.739Z,101781.88
2022-12-26T16:24:42.141Z,101789.69
2022-12-26T16:27:15.023Z,101784.56
2022-12-26T16:29:47.939Z,101786.47
2022-12-26T16:32:19.249Z,101796.34
2022-12-26T16:34:46.707Z,101799.56
2022-12-26T16:37:19.252Z,101790.13
2022-12-26T16:40:04.758Z,101797.09
2022-12-26T16:42:32.334Z,101801.19
2022-12-26T16:45:00.135Z,101793.94
2022-12-26T16:47:28.861Z,101801.78
2022-12-26T16:49:56.019Z,101797.31
2022-12-26T16:52:46.030Z,101803.72
2022-12-26T16:55:22.331Z,101813.72
2022-12-26T16:57:52.343Z,101805.50
2022-12-26T17:00:21.479Z,101810.50
2022-12-26T17:02:51.777Z,101812.47
2022-12-26T17:05:23.231Z,101816.75
2022-12-26T17:07:51.850Z,101810.28
2022-12-26T17:10:33.009Z,101816.50
2022-12-26T17:13:02.209Z,101823.44
2022-12-26T17:15:38.855Z,101814.91
2022-12-26T17:18:30.188Z,101823.03
2022-12-26T17:21:14.357Z,101840.97
2022-12-26T17:23:42.234Z,101838.28
2022-12-26T17:26:21.302Z,101835.09
2022-12-26T17:28:47.795Z,101841.56
2022-12-26T17:31:25.273Z,101839.47
2022-12-26T17:33:56.198Z,101832.78
2022-12-26T17:39:18.746Z,101841.88
2022-12-26T17:42:00.778Z,101842.19
2022-12-26T17:44:34.477Z,101848.69
2022-12-26T17:47:28.606Z,101845.22
2022-12-26T17:49:55.922Z,101850.00
2022-12-26T17:52:27.123Z,101840.63
2022-12-26T17:54:53.901Z,101844.94
2022-12-26T17:57:26.425Z,101854.38
2022-12-26T17:59:53.881Z,101855.41
2022-12-26T18:02:20.662Z,101856.78
2022-12-26T18:04:48.056Z,101862.81
2022-12-26T18:07:23.256Z,101861.78
2022-12-26T18:09:55.407Z,101867.44
2022-12-26T18:12:22.064Z,101869.34
2022-12-26T18:14:48.525Z,101880.94
2022-12-26T18:17:18.279Z,101883.06
2022-12-26T18:19:46.021Z,101886.31
2022-12-26T18:22:18.044Z,101900.28
2022-12-26T18:24:45.321Z,101883.06
2022-12-26T18:27:21.465Z,101878.69
2022-12-26T18:29:49.624Z,101880.53
2022-12-26T18:32:24.237Z,101884.53
2022-12-26T18:34:51.453Z,101893.69
2022-12-26T18:37:18.740Z,101902.31
2022-12-26T18:39:45.231Z,101895.63
2022-12-26T18:42:15.973Z,101906.66
2022-12-26T18:44:43.557Z,101906.72
2022-12-26T18:47:13.553Z,101913.47
2022-12-26T18:49:41.587Z,101923.91
2022-12-26T18:52:08.857Z,101921.84
2022-12-26T18:54:36.490Z,101929.38
2022-12-26T18:57:05.090Z,101926.69
2022-12-26T18:59:31.617Z,101925.09
2022-12-26T19:01:58.268Z,101934.19
2022-12-26T19:04:25.519Z,101929.38
2022-12-26T19:06:53.352Z,101929.66
2022-12-26T19:09:20.164Z,101933.94
2022-12-26T19:11:46.627Z,101940.63
2022-12-26T19:14:21.504Z,101949.75
2022-12-26T19:16:48.091Z,101957.81
2022-12-26T19:19:14.648Z,101954.84
2022-12-26T19:21:42.858Z,101955.66
2022-12-26T19:24:11.264Z,101956.97
2022-12-26T19:26:37.753Z,101952.97
2022-12-26T19:29:04.217Z,101955.09
2022-12-26T19:31:30.731Z,101958.31
2022-12-26T19:33:58.823Z,101956.97
2022-12-26T19:36:25.355Z,101972.00
2022-12-26T19:38:55.019Z,101972.56
2022-12-26T19:41:21.833Z,101964.78
2022-12-26T19:43:48.651Z,101964.78
2022-12-26T19:46:15.797Z,101960.22
2022-12-26T19:48:42.524Z,101972.84
2022-12-26T19:51:11.703Z,101976.31
2022-12-26T19:53:39.091Z,101971.22
2022-12-26T19:56:10.281Z,101976.09
2022-12-26T19:58:37.585Z,101970.72
2022-12-26T20:01:09.486Z,101984.38
2022-12-26T20:03:37.068Z,101984.38
2022-12-26T20:06:11.263Z,101983.84
2022-12-26T20:08:38.567Z,101976.09
2022-12-26T20:11:07.345Z,101983.34
2022-12-26T20:13:35.234Z,101992.19
2022-12-26T20:16:06.853Z,101981.97
2022-12-26T20:18:35.146Z,101984.13
2022-12-26T20:21:01.702Z,101995.66
2022-12-26T20:23:28.183Z,101998.38
2022-12-26T20:25:54.663Z,101994.63
2022-12-26T20:28:21.200Z,101989.25
2022-12-26T20:31:07.933Z,101988.19
2022-12-26T20:33:39.139Z,101996.50
2022-12-26T20:36:11.799Z,101994.63
2022-12-26T20:38:39.265Z,101984.97
2022-12-26T20:41:06.615Z,101994.34
2022-12-26T20:43:34.067Z,101996.78
2022-12-26T20:46:07.612Z,101994.88
2022-12-26T20:48:34.290Z,102002.13
2022-12-26T20:51:04.881Z,102013.41
2022-12-26T20:53:32.252Z,102006.72
2022-12-26T20:55:58.820Z,102003.50
2022-12-26T20:58:27.115Z,102017.97
2022-12-26T21:00:58.305Z,102026.00
2022-12-26T21:03:25.546Z,102016.34
2022-12-26T21:05:52.458Z,102023.88
2022-12-26T21:08:19.520Z,102029.25
2022-12-26T21:10:46.860Z,102035.41
2022-12-26T21:13:13.454Z,102035.69
2022-12-26T21:15:40.175Z,102042.38
2022-12-26T21:18:06.649Z,102046.94
2022-12-26T21:20:36.805Z,102045.88
2022-12-26T21:23:03.446Z,102038.91
2022-12-26T21:25:29.985Z,102036.78
2022-12-26T21:27:59.390Z,102049.91
2022-12-26T21:30:26.202Z,102050.16
2022-12-26T21:32:52.751Z,102054.47
2022-12-26T21:35:19.286Z,102059.56
2022-12-26T21:37:48.406Z,102060.63
2022-12-26T21:40:15.424Z,102060.38
2022-12-26T21:42:41.931Z,102066.53
2022-12-26T21:45:09.019Z,102064.63
2022-12-26T21:47:35.627Z,102063.31
2022-12-26T21:50:02.129Z,102064.38
2022-12-26T21:52:28.616Z,102064.91
2022-12-26T21:55:13.363Z,102072.41
2022-12-26T21:57:39.909Z,102076.16
2022-12-26T22:00:06.963Z,102068.13
2022-12-26T22:02:54.782Z,102074.53
2022-12-26T22:05:24.171Z,102071.31
2022-12-26T22:07:56.069Z,102077.47
2022-12-26T22:10:42.667Z,102082.31
2022-12-26T22:13:09.567Z,102093.53
2022-12-26T22:16:00.557Z,102099.16
2022-12-26T22:18:27.292Z,102104.00
2022-12-26T22:20:53.829Z,102121.38
2022-12-26T22:23:20.316Z,102114.41
2022-12-26T22:25:54.977Z,102122.22
2022-12-26T22:28:23.459Z,102113.63
2022-12-26T22:30:51.020Z,102115.75
2022-12-26T22:33:20.109Z,102124.59
2022-12-26T22:35:46.917Z,102125.69
2022-12-26T22:38:13.933Z,102122.19
2022-12-26T22:40:40.630Z,102116.56
2022-12-26T22:43:07.349Z,102130.75
2022-12-26T22:45:33.815Z,102130.50
2022-12-26T22:48:00.347Z,102130.75
2022-12-26T22:50:26.797Z,102125.13
2022-12-26T22:52:53.228Z,102126.75
2022-12-26T22:55:19.713Z,102141.50
2022-12-26T22:57:51.072Z,102135.06
2022-12-26T23:00:18.999Z,102133.41
2022-12-26T23:02:45.523Z,102142.25
2022-12-26T23:05:12.779Z,102141.72
2022-12-26T23:07:39.663Z,102144.41
2022-12-26T23:10:07.747Z,102138.50
2022-12-26T23:12:43.480Z,102140.91
2022-12-26T23:15:19.650Z,102151.63
2022-12-26T23:18:34.770Z,102152.44
2022-12-26T23:21:26.558Z,102153.50
2022-12-26T23:23:53.039Z,102141.41
2022-12-26T23:26:19.514Z,102156.19
2022-12-26T23:29:04.489Z,102158.06
2022-12-26T23:31:30.939Z,102163.69
2022-12-26T23:33:57.438Z,102155.88
2022-12-26T23:36:23.928Z,102167.41
2022-12-26T23:38:50.395Z,102155.88
2022-12-26T23:41:16.830Z,102162.84
2022-12-26T23:43:43.285Z,102164.50
2022-12-26T23:46:10.983Z,102166.38
2022-12-26T23:48:37.552Z,102164.19
2022-12-26T23:51:06.278Z,102165.78
2022-12-26T23:53:33.055Z,102166.59
2022-12-26T23:55:59.540Z,102159.38
2022-12-26T23:58:26.362Z,102160.16
